sensor_id;sensor_type;location;lat;lon;timestamp;pressure;altitude;pressure_sealevel;temperature;humidity
7309;BME280;3695;53.330;9.876;2023-04-30T00:02:16;102784.13;;;4.74;100.00
7309;BME280;3695;53.330;9.876;2023-04-30T00:04:42;102809.03;;;4.77;100.00
7309;BME280;3695;53.330;9.876;2023-04-30T00:07:09;102813.34;;;4.89;100.00
7309;BME280;3695;53.330;9.876;2023-04-30T00:09:36;102802.28;;;4.82;100.00
7309;BME280;3695;53.330;9.876;2023-04-30T00:12:02;102819.53;;;4.80;100.00
7309;BME280;3695;53.330;9.876;2023-04-30T00:14:29;102835.69;;;4.89;100.00
7309;BME280;3695;53.330;9.876;2023-04-30T00:16:55;102874.09;;;4.80;100.00
7309;BME280;3695;53.330;9.876;2023-04-30T00:19:23;102877.41;;;4.72;100.00
7309;BME280;3695;53.330;9.876;2023-04-30T00:21:50;102902.66;;;4.81;100.00
7309;BME280;3695;53.330;9.876;2023-04-30T00:24:16;102945.06;;;4.66;100.00
7309;BME280;3695;53.330;9.876;2023-04-30T00:26:42;103001.94;;;4.71;100.00
7309;BME280;3695;53.330;9.876;2023-04-30T00:29:09;103054.69;;;4.72;100.00
7309;BME280;3695;53.330;9.876;2023-04-30T00:31:36;103057.63;;;4.69;100.00
7309;BME280;3695;53.330;9.876;2023-04-30T00:34:03;103123.47;;;4.53;100.00
7309;BME280;3695;53.330;9.876;2023-04-30T00:36:31;103214.91;;;4.62;100.00
7309;BME280;3695;53.330;9.876;2023-04-30T00:38:57;103182.66;;;4.62;100.00
7309;BME280;3695;53.330;9.876;2023-04-30T00:41:24;103251.41;;;4.65;100.00
7309;BME280;3695;53.330;9.876;2023-04-30T00:43:51;103266.56;;;4.66;100.00
7309;BME280;3695;53.330;9.876;2023-04-30T00:46:17;103208.28;;;4.44;100.00
7309;BME280;3695;53.330;9.876;2023-04-30T00:48:44;103121.03;;;4.50;100.00
7309;BME280;3695;53.330;9.876;2023-04-30T00:51:10;103076.59;;;4.57;100.00
7309;BME280;3695;53.330;9.876;2023-04-30T00:53:39;103050.94;;;4.53;100.00
7309;BME280;3695;53.330;9.876;2023-04-30T00:56:07;102994.31;;;4.45;100.00
7309;BME280;3695;53.330;9.876;2023-04-30T00:58:34;102967.25;;;4.36;100.00
7309;BME280;3695;53.330;9.876;2023-04-30T01:01:01;102983.22;;;4.49;100.00
7309;BME280;3695;53.330;9.876;2023-04-30T01:03:28;102929.16;;;4.42;100.00
7309;BME280;3695;53.330;9.876;2023-04-30T01:05:55;102966.91;;;4.30;100.00
7309;BME280;3695;53.330;9.876;2023-04-30T01:08:21;102953.59;;;4.28;100.00
7309;BME280;3695;53.330;9.876;2023-04-30T01:10:53;102963.34;;;4.18;100.00
7309;BME280;3695;53.330;9.876;2023-04-30T01:13:25;102947.00;;;4.21;100.00
7309;BME280;3695;53.330;9.876;2023-04-30T01:15:58;102961.38;;;4.20;100.00
7309;BME280;3695;53.330;9.876;2023-04-30T01:18:28;102951.88;;;4.38;100.00
7309;BME280;3695;53.330;9.876;2023-04-30T01:21:00;102945.53;;;4.28;100.00
7309;BME280;3695;53.330;9.876;2023-04-30T01:23:41;102964.81;;;4.33;100.00
7309;BME280;3695;53.330;9.876;2023-04-30T01:26:17;102966.50;;;4.46;100.00
7309;BME280;3695;53.330;9.876;2023-04-30T01:28:49;102946.75;;;4.13;100.00
7309;BME280;3695;53.330;9.876;2023-04-30T01:31:17;102959.69;;;3.97;100.00
7309;BME280;3695;53.330;9.876;2023-04-30T01:33:44;102976.91;;;3.94;100.00
7309;BME280;3695;53.330;9.876;2023-04-30T01:36:30;102944.59;;;3.85;100.00
7309;BME280;3695;53.330;9.876;2023-04-30T01:39:14;102987.34;;;3.75;100.00
7309;BME280;3695;53.330;9.876;2023-04-30T01:41:49;103012.88;;;3.81;100.00
7309;BME280;3695;53.330;9.876;2023-04-30T01:44:42;102988.34;;;3.85;100.00
7309;BME280;3695;53.330;9.876;2023-04-30T01:47:22;103021.41;;;3.86;100.00
7309;BME280;3695;53.330;9.876;2023-04-30T01:50:02;102997.75;;;3.79;100.00
7309;BME280;3695;53.330;9.876;2023-04-30T01:52:38;102992.09;;;3.71;100.00
7309;BME280;3695;53.330;9.876;2023-04-30T01:55:08;103025.72;;;3.64;100.00
7309;BME280;3695;53.330;9.876;2023-04-30T01:57:40;103054.59;;;3.61;100.00
7309;BME280;3695;53.330;9.876;2023-04-30T02:00:10;103063.50;;;3.61;100.00
7309;BME280;3695;53.330;9.876;2023-04-30T02:02:36;103069.88;;;3.71;100.00
7309;BME280;3695;53.330;9.876;2023-04-30T02:05:03;103065.34;;;3.61;100.00
7309;BME280;3695;53.330;9.876;2023-04-30T02:07:36;103103.47;;;3.53;100.00
7309;BME280;3695;53.330;9.876;2023-04-30T02:10:05;103092.84;;;3.52;100.00
7309;BME280;3695;53.330;9.876;2023-04-30T02:12:32;103094.13;;;3.35;100.00
7309;BME280;3695;53.330;9.876;2023-04-30T02:14:58;103081.84;;;3.43;100.00
7309;BME280;3695;53.330;9.876;2023-04-30T02:17:26;103128.31;;;3.55;100.00
7309;BME280;3695;53.330;9.876;2023-04-30T02:19:52;103109.22;;;3.36;100.00
7309;BME280;3695;53.330;9.876;2023-04-30T02:22:19;103133.38;;;3.36;100.00
7309;BME280;3695;53.330;9.876;2023-04-30T02:24:45;103130.06;;;3.32;100.00
7309;BME280;3695;53.330;9.876;2023-04-30T02:27:12;103145.69;;;3.26;100.00
7309;BME280;3695;53.330;9.876;2023-04-30T02:29:38;103137.88;;;3.23;100.00
7309;BME280;3695;53.330;9.876;2023-04-30T02:32:05;103159.72;;;3.29;100.00
7309;BME280;3695;53.330;9.876;2023-04-30T02:34:32;103129.78;;;3.11;100.00
7309;BME280;3695;53.330;9.876;2023-04-30T02:36:59;103154.56;;;3.02;100.00
7309;BME280;3695;53.330;9.876;2023-04-30T02:39:26;103161.88;;;3.00;100.00
7309;BME280;3695;53.330;9.876;2023-04-30T02:41:53;103179.47;;;2.92;100.00
7309;BME280;3695;53.330;9.876;2023-04-30T02:44:19;103187.59;;;2.90;100.00
7309;BME280;3695;53.330;9.876;2023-04-30T02:46:46;103203.69;;;2.90;100.00
7309;BME280;3695;53.330;9.876;2023-04-30T02:49:12;103205.41;;;2.91;100.00
7309;BME280;3695;53.330;9.876;2023-04-30T02:51:40;103208.81;;;2.93;100.00
7309;BME280;3695;53.330;9.876;2023-04-30T02:54:06;103201.00;;;2.90;100.00
7309;BME280;3695;53.330;9.876;2023-04-30T02:56:33;103204.75;;;2.88;100.00
7309;BME280;3695;53.330;9.876;2023-04-30T02:58:59;103216.53;;;2.85;100.00
7309;BME280;3695;53.330;9.876;2023-04-30T03:01:26;103214.81;;;2.97;100.00
7309;BME280;3695;53.330;9.876;2023-04-30T03:03:52;103194.34;;;2.96;100.00
7309;BME280;3695;53.330;9.876;2023-04-30T03:06:19;103206.25;;;2.92;100.00
7309;BME280;3695;53.330;9.876;2023-04-30T03:08:47;103196.06;;;2.97;100.00
7309;BME280;3695;53.330;9.876;2023-04-30T03:11:13;103206.97;;;2.81;100.00
7309;BME280;3695;53.330;9.876;2023-04-30T03:13:41;103210.31;;;2.72;100.00
7309;BME280;3695;53.330;9.876;2023-04-30T03:16:08;103214.69;;;2.73;100.00
7309;BME280;3695;53.330;9.876;2023-04-30T03:18:35;103227.66;;;2.66;100.00
7309;BME280;3695;53.330;9.876;2023-04-30T03:21:01;103235.81;;;2.65;100.00
7309;BME280;3695;53.330;9.876;2023-04-30T03:23:28;103246.09;;;2.71;100.00
7309;BME280;3695;53.330;9.876;2023-04-30T03:25:55;103250.91;;;2.66;100.00
7309;BME280;3695;53.330;9.876;2023-04-30T03:28:22;103243.31;;;2.60;100.00
7309;BME280;3695;53.330;9.876;2023-04-30T03:30:49;103269.75;;;2.64;100.00
7309;BME280;3695;53.330;9.876;2023-04-30T03:33:15;103262.38;;;2.68;100.00
7309;BME280;3695;53.330;9.876;2023-04-30T03:35:41;103262.78;;;2.62;100.00
7309;BME280;3695;53.330;9.876;2023-04-30T03:38:08;103282.06;;;2.67;100.00
7309;BME280;3695;53.330;9.876;2023-04-30T03:40:34;103279.28;;;2.56;100.00
7309;BME280;3695;53.330;9.876;2023-04-30T03:43:02;103299.75;;;2.57;100.00
7309;BME280;3695;53.330;9.876;2023-04-30T03:45:29;103289.44;;;2.50;100.00
7309;BME280;3695;53.330;9.876;2023-04-30T03:47:55;103301.34;;;2.46;100.00
7309;BME280;3695;53.330;9.876;2023-04-30T03:50:22;103316.44;;;2.47;100.00
7309;BME280;3695;53.330;9.876;2023-04-30T03:52:48;103333.66;;;2.43;100.00
7309;BME280;3695;53.330;9.876;2023-04-30T03:55:14;103324.81;;;2.68;100.00
7309;BME280;3695;53.330;9.876;2023-04-30T03:57:41;103335.38;;;2.44;100.00
7309;BME280;3695;53.330;9.876;2023-04-30T04:00:10;103351.97;;;2.49;100.00
7309;BME280;3695;53.330;9.876;2023-04-30T04:02:37;103321.44;;;2.39;100.00
7309;BME280;3695;53.330;9.876;2023-04-30T04:05:04;103340.72;;;2.44;100.00
7309;BME280;3695;53.330;9.876;2023-04-30T04:07:31;103362.47;;;2.52;100.00
7309;BME280;3695;53.330;9.876;2023-04-30T04:09:57;103375.47;;;2.59;100.00
7309;BME280;3695;53.330;9.876;2023-04-30T04:12:24;103360.78;;;2.51;100.00
7309;BME280;3695;53.330;9.876;2023-04-30T04:14:51;103341.06;;;2.52;100.00
7309;BME280;3695;53.330;9.876;2023-04-30T04:17:18;103363.56;;;2.63;100.00
7309;BME280;3695;53.330;9.876;2023-04-30T04:19:45;103344.22;;;2.72;100.00
7309;BME280;3695;53.330;9.876;2023-04-30T04:22:11;103352.56;;;2.67;100.00
7309;BME280;3695;53.330;9.876;2023-04-30T04:24:38;103372.50;;;2.76;100.00
7309;BME280;3695;53.330;9.876;2023-04-30T04:27:04;103358.13;;;2.77;100.00
7309;BME280;3695;53.330;9.876;2023-04-30T04:29:31;103365.75;;;2.83;100.00
7309;BME280;3695;53.330;9.876;2023-04-30T04:31:57;103373.44;;;2.75;100.00
7309;BME280;3695;53.330;9.876;2023-04-30T04:34:25;103404.50;;;3.04;100.00
7309;BME280;3695;53.330;9.876;2023-04-30T04:36:52;103394.19;;;2.98;100.00
7309;BME280;3695;53.330;9.876;2023-04-30T04:39:18;103392.91;;;2.91;100.00
7309;BME280;3695;53.330;9.876;2023-04-30T04:41:45;103401.69;;;2.93;100.00
7309;BME280;3695;53.330;9.876;2023-04-30T04:44:11;103391.94;;;2.92;100.00
7309;BME280;3695;53.330;9.876;2023-04-30T04:46:38;103417.13;;;3.02;100.00
7309;BME280;3695;53.330;9.876;2023-04-30T04:49:06;103426.13;;;3.01;100.00
7309;BME280;3695;53.330;9.876;2023-04-30T04:51:34;103438.16;;;3.08;100.00
7309;BME280;3695;53.330;9.876;2023-04-30T04:54:01;103449.75;;;3.22;100.00
7309;BME280;3695;53.330;9.876;2023-04-30T04:56:27;103455.25;;;3.58;100.00
7309;BME280;3695;53.330;9.876;2023-04-30T04:58:54;103408.38;;;3.26;100.00
7309;BME280;3695;53.330;9.876;2023-04-30T05:01:21;103471.66;;;3.54;100.00
7309;BME280;3695;53.330;9.876;2023-04-30T05:03:47;103475.53;;;3.88;100.00
7309;BME280;3695;53.330;9.876;2023-04-30T05:06:13;103443.34;;;3.62;100.00
7309;BME280;3695;53.330;9.876;2023-04-30T05:08:41;103463.72;;;4.03;100.00
7309;BME280;3695;53.330;9.876;2023-04-30T05:11:08;103429.63;;;4.16;100.00
7309;BME280;3695;53.330;9.876;2023-04-30T05:13:34;103442.19;;;4.16;100.00
7309;BME280;3695;53.330;9.876;2023-04-30T05:16:01;103371.09;;;4.21;100.00
7309;BME280;3695;53.330;9.876;2023-04-30T05:18:28;103419.13;;;4.26;100.00
7309;BME280;3695;53.330;9.876;2023-04-30T05:20:55;103420.88;;;4.38;100.00
7309;BME280;3695;53.330;9.876;2023-04-30T05:23:21;103329.97;;;4.45;100.00
7309;BME280;3695;53.330;9.876;2023-04-30T05:25:51;103366.38;;;4.49;100.00
7309;BME280;3695;53.330;9.876;2023-04-30T05:28:18;103371.16;;;4.80;100.00
7309;BME280;3695;53.330;9.876;2023-04-30T05:30:44;103343.91;;;4.73;100.00
7309;BME280;3695;53.330;9.876;2023-04-30T05:33:11;103330.63;;;4.83;100.00
7309;BME280;3695;53.330;9.876;2023-04-30T05:35:37;103262.94;;;5.00;100.00
7309;BME280;3695;53.330;9.876;2023-04-30T05:38:03;103408.88;;;6.48;100.00
7309;BME280;3695;53.330;9.876;2023-04-30T05:40:30;102955.72;;;8.07;100.00
7309;BME280;3695;53.330;9.876;2023-04-30T05:42:58;102887.69;;;6.71;100.00
7309;BME280;3695;53.330;9.876;2023-04-30T05:45:25;102965.91;;;6.10;100.00
7309;BME280;3695;53.330;9.876;2023-04-30T05:47:52;103087.19;;;5.88;100.00
7309;BME280;3695;53.330;9.876;2023-04-30T05:50:18;103063.31;;;5.74;100.00
7309;BME280;3695;53.330;9.876;2023-04-30T05:52:45;103126.00;;;5.53;100.00
7309;BME280;3695;53.330;9.876;2023-04-30T05:55:11;103124.22;;;5.63;100.00
7309;BME280;3695;53.330;9.876;2023-04-30T05:57:38;103069.63;;;5.52;100.00
7309;BME280;3695;53.330;9.876;2023-04-30T06:00:07;103133.75;;;5.67;100.00
7309;BME280;3695;53.330;9.876;2023-04-30T06:02:33;103073.63;;;5.68;100.00
7309;BME280;3695;53.330;9.876;2023-04-30T06:05:00;103131.31;;;5.76;100.00
7309;BME280;3695;53.330;9.876;2023-04-30T06:07:27;103183.09;;;6.00;100.00
7309;BME280;3695;53.330;9.876;2023-04-30T06:09:53;103131.47;;;5.95;100.00
7309;BME280;3695;53.330;9.876;2023-04-30T06:12:20;103080.09;;;5.87;100.00
7309;BME280;3695;53.330;9.876;2023-04-30T06:14:47;103095.63;;;6.15;100.00
7309;BME280;3695;53.330;9.876;2023-04-30T06:17:15;103130.94;;;6.43;100.00
7309;BME280;3695;53.330;9.876;2023-04-30T06:19:41;103014.97;;;6.44;100.00
7309;BME280;3695;53.330;9.876;2023-04-30T06:22:08;103041.34;;;6.50;100.00
7309;BME280;3695;53.330;9.876;2023-04-30T06:24:34;103020.94;;;6.48;100.00
7309;BME280;3695;53.330;9.876;2023-04-30T06:27:01;103052.88;;;6.62;100.00
7309;BME280;3695;53.330;9.876;2023-04-30T06:29:28;103019.16;;;6.68;100.00
7309;BME280;3695;53.330;9.876;2023-04-30T06:31:54;103008.25;;;6.79;100.00
7309;BME280;3695;53.330;9.876;2023-04-30T06:34:22;102971.09;;;6.73;100.00
7309;BME280;3695;53.330;9.876;2023-04-30T06:36:49;102949.69;;;6.90;100.00
7309;BME280;3695;53.330;9.876;2023-04-30T06:39:15;102852.06;;;6.97;100.00
7309;BME280;3695;53.330;9.876;2023-04-30T06:41:42;102820.44;;;6.79;100.00
7309;BME280;3695;53.330;9.876;2023-04-30T06:44:09;102909.38;;;7.18;100.00
7309;BME280;3695;53.330;9.876;2023-04-30T06:46:35;102858.44;;;7.15;100.00
7309;BME280;3695;53.330;9.876;2023-04-30T06:49:01;102649.75;;;6.88;100.00
7309;BME280;3695;53.330;9.876;2023-04-30T06:51:29;102832.28;;;7.25;100.00
7309;BME280;3695;53.330;9.876;2023-04-30T06:53:56;102838.25;;;7.19;100.00
7309;BME280;3695;53.330;9.876;2023-04-30T06:56:22;102779.63;;;7.21;100.00
7309;BME280;3695;53.330;9.876;2023-04-30T06:58:49;102833.13;;;7.25;100.00
7309;BME280;3695;53.330;9.876;2023-04-30T07:01:15;102816.72;;;7.46;100.00
7309;BME280;3695;53.330;9.876;2023-04-30T07:03:42;102764.84;;;7.52;100.00
7309;BME280;3695;53.330;9.876;2023-04-30T07:06:08;102734.59;;;7.58;100.00
7309;BME280;3695;53.330;9.876;2023-04-30T07:08:36;102754.97;;;7.71;100.00
7309;BME280;3695;53.330;9.876;2023-04-30T07:11:05;102689.00;;;7.55;100.00
7309;BME280;3695;53.330;9.876;2023-04-30T07:13:31;102697.13;;;7.73;100.00
7309;BME280;3695;53.330;9.876;2023-04-30T07:15:58;102635.34;;;7.88;100.00
7309;BME280;3695;53.330;9.876;2023-04-30T07:18:24;102704.94;;;7.94;100.00
7309;BME280;3695;53.330;9.876;2023-04-30T07:20:51;102627.53;;;8.03;100.00
7309;BME280;3695;53.330;9.876;2023-04-30T07:23:17;102506.41;;;7.82;100.00
7309;BME280;3695;53.330;9.876;2023-04-30T07:25:45;102601.38;;;8.03;100.00
7309;BME280;3695;53.330;9.876;2023-04-30T07:28:11;102557.06;;;7.88;100.00
7309;BME280;3695;53.330;9.876;2023-04-30T07:30:38;102729.78;;;8.15;100.00
7309;BME280;3695;53.330;9.876;2023-04-30T07:33:05;102663.63;;;8.37;100.00
7309;BME280;3695;53.330;9.876;2023-04-30T07:35:32;102568.44;;;8.00;100.00
7309;BME280;3695;53.330;9.876;2023-04-30T07:37:58;102568.84;;;8.05;100.00
7309;BME280;3695;53.330;9.876;2023-04-30T07:40:25;102468.53;;;8.26;100.00
7309;BME280;3695;53.330;9.876;2023-04-30T07:42:53;102403.09;;;8.40;100.00
7309;BME280;3695;53.330;9.876;2023-04-30T07:45:19;102295.31;;;8.29;100.00
7309;BME280;3695;53.330;9.876;2023-04-30T07:47:45;102310.50;;;8.21;100.00
7309;BME280;3695;53.330;9.876;2023-04-30T07:50:12;102435.81;;;8.03;100.00
7309;BME280;3695;53.330;9.876;2023-04-30T07:52:41;102368.72;;;8.16;100.00
7309;BME280;3695;53.330;9.876;2023-04-30T07:55:08;102370.59;;;8.24;100.00
7309;BME280;3695;53.330;9.876;2023-04-30T07:57:34;102363.91;;;8.36;100.00
7309;BME280;3695;53.330;9.876;2023-04-30T08:00:03;102474.97;;;8.33;100.00
7309;BME280;3695;53.330;9.876;2023-04-30T08:02:29;102465.94;;;8.50;100.00
7309;BME280;3695;53.330;9.876;2023-04-30T08:04:56;102501.94;;;8.25;100.00
7309;BME280;3695;53.330;9.876;2023-04-30T08:07:23;102565.31;;;8.56;100.00
7309;BME280;3695;53.330;9.876;2023-04-30T08:09:49;102581.09;;;8.43;100.00
7309;BME280;3695;53.330;9.876;2023-04-30T08:12:16;102584.44;;;8.37;100.00
7309;BME280;3695;53.330;9.876;2023-04-30T08:14:43;102596.69;;;8.31;100.00
7309;BME280;3695;53.330;9.876;2023-04-30T08:17:10;102600.16;;;8.67;100.00
7309;BME280;3695;53.330;9.876;2023-04-30T08:19:37;102616.38;;;8.67;100.00
7309;BME280;3695;53.330;9.876;2023-04-30T08:22:03;102658.75;;;8.93;100.00
7309;BME280;3695;53.330;9.876;2023-04-30T08:24:30;102654.22;;;8.67;100.00
7309;BME280;3695;53.330;9.876;2023-04-30T08:26:56;102657.91;;;8.40;100.00
7309;BME280;3695;53.330;9.876;2023-04-30T08:29:24;102717.22;;;8.94;100.00
7309;BME280;3695;53.330;9.876;2023-04-30T08:31:51;102779.53;;;8.84;100.00
7309;BME280;3695;53.330;9.876;2023-04-30T08:34:19;102820.00;;;8.94;100.00
7309;BME280;3695;53.330;9.876;2023-04-30T08:36:46;102853.31;;;8.76;100.00
7309;BME280;3695;53.330;9.876;2023-04-30T08:39:12;102844.22;;;8.42;100.00
7309;BME280;3695;53.330;9.876;2023-04-30T08:41:39;102920.53;;;9.07;100.00
7309;BME280;3695;53.330;9.876;2023-04-30T08:44:09;102882.50;;;8.91;100.00
7309;BME280;3695;53.330;9.876;2023-04-30T08:46:37;102943.03;;;9.07;100.00
7309;BME280;3695;53.330;9.876;2023-04-30T08:49:04;102874.25;;;9.10;100.00
7309;BME280;3695;53.330;9.876;2023-04-30T08:51:32;102867.63;;;8.69;100.00
7309;BME280;3695;53.330;9.876;2023-04-30T08:53:59;102983.28;;;8.93;100.00
7309;BME280;3695;53.330;9.876;2023-04-30T08:56:25;103008.19;;;9.50;100.00
7309;BME280;3695;53.330;9.876;2023-04-30T08:58:53;102979.44;;;9.13;100.00
7309;BME280;3695;53.330;9.876;2023-04-30T09:01:20;103009.63;;;9.44;100.00
7309;BME280;3695;53.330;9.876;2023-04-30T09:03:46;102948.09;;;9.28;100.00
7309;BME280;3695;53.330;9.876;2023-04-30T09:06:16;102966.09;;;9.37;100.00
7309;BME280;3695;53.330;9.876;2023-04-30T09:08:45;102954.84;;;9.06;100.00
7309;BME280;3695;53.330;9.876;2023-04-30T09:11:22;103024.34;;;9.24;100.00
7309;BME280;3695;53.330;9.876;2023-04-30T09:13:49;103025.81;;;9.54;100.00
7309;BME280;3695;53.330;9.876;2023-04-30T09:16:17;103000.34;;;9.64;100.00
7309;BME280;3695;53.330;9.876;2023-04-30T09:18:44;102984.03;;;9.38;100.00
7309;BME280;3695;53.330;9.876;2023-04-30T09:21:10;102881.47;;;9.27;100.00
7309;BME280;3695;53.330;9.876;2023-04-30T09:23:54;103008.94;;;9.60;100.00
7309;BME280;3695;53.330;9.876;2023-04-30T09:26:25;102975.81;;;9.66;100.00
7309;BME280;3695;53.330;9.876;2023-04-30T09:28:54;102987.91;;;9.79;100.00
7309;BME280;3695;53.330;9.876;2023-04-30T09:31:21;102960.50;;;9.83;100.00
7309;BME280;3695;53.330;9.876;2023-04-30T09:33:48;102943.31;;;9.66;100.00
7309;BME280;3695;53.330;9.876;2023-04-30T09:36:15;102859.44;;;9.48;100.00
7309;BME280;3695;53.330;9.876;2023-04-30T09:38:42;102934.78;;;9.53;100.00
7309;BME280;3695;53.330;9.876;2023-04-30T09:41:20;103028.06;;;10.10;100.00
7309;BME280;3695;53.330;9.876;2023-04-30T09:43:47;102992.28;;;9.98;100.00
7309;BME280;3695;53.330;9.876;2023-04-30T09:46:14;103013.94;;;9.98;100.00
7309;BME280;3695;53.330;9.876;2023-04-30T09:48:40;102913.25;;;9.77;100.00
7309;BME280;3695;53.330;9.876;2023-04-30T09:51:09;102995.34;;;10.03;100.00
7309;BME280;3695;53.330;9.876;2023-04-30T09:53:36;102988.47;;;10.17;100.00
7309;BME280;3695;53.330;9.876;2023-04-30T09:56:04;102963.88;;;10.10;100.00
7309;BME280;3695;53.330;9.876;2023-04-30T09:58:36;103067.56;;;10.81;100.00
7309;BME280;3695;53.330;9.876;2023-04-30T10:01:04;103006.09;;;10.97;100.00
7309;BME280;3695;53.330;9.876;2023-04-30T10:03:31;102903.09;;;10.55;100.00
7309;BME280;3695;53.330;9.876;2023-04-30T10:05:58;102999.94;;;10.87;100.00
7309;BME280;3695;53.330;9.876;2023-04-30T10:08:27;102799.38;;;10.45;100.00
7309;BME280;3695;53.330;9.876;2023-04-30T10:10:57;102772.53;;;10.18;100.00
7309;BME280;3695;53.330;9.876;2023-04-30T10:13:24;102979.94;;;10.38;100.00
7309;BME280;3695;53.330;9.876;2023-04-30T10:15:58;102954.16;;;10.84;100.00
7309;BME280;3695;53.330;9.876;2023-04-30T10:18:27;102804.47;;;10.48;100.00
7309;BME280;3695;53.330;9.876;2023-04-30T10:20:58;102980.41;;;10.76;100.00
7309;BME280;3695;53.330;9.876;2023-04-30T10:23:28;102838.69;;;10.49;100.00
7309;BME280;3695;53.330;9.876;2023-04-30T10:25:55;102687.38;;;10.20;100.00
7309;BME280;3695;53.330;9.876;2023-04-30T10:28:22;102638.75;;;10.10;100.00
7309;BME280;3695;53.330;9.876;2023-04-30T10:30:49;102795.28;;;10.33;100.00
7309;BME280;3695;53.330;9.876;2023-04-30T10:33:24;103013.22;;;10.98;100.00
7309;BME280;3695;53.330;9.876;2023-04-30T10:35:57;102990.00;;;11.04;100.00
7309;BME280;3695;53.330;9.876;2023-04-30T10:38:27;103005.78;;;11.33;100.00
7309;BME280;3695;53.330;9.876;2023-04-30T10:40:55;102926.88;;;11.34;100.00
7309;BME280;3695;53.330;9.876;2023-04-30T10:43:23;102688.81;;;10.96;100.00
7309;BME280;3695;53.330;9.876;2023-04-30T10:45:49;102811.38;;;11.08;100.00
7309;BME280;3695;53.330;9.876;2023-04-30T10:48:16;102902.78;;;11.23;100.00
7309;BME280;3695;53.330;9.876;2023-04-30T10:50:51;102626.09;;;10.91;100.00
7309;BME280;3695;53.330;9.876;2023-04-30T10:53:19;103006.28;;;11.61;100.00
7309;BME280;3695;53.330;9.876;2023-04-30T10:55:47;102602.97;;;11.03;100.00
7309;BME280;3695;53.330;9.876;2023-04-30T10:58:24;102762.75;;;10.90;100.00
7309;BME280;3695;53.330;9.876;2023-04-30T11:00:59;102850.25;;;11.00;100.00
7309;BME280;3695;53.330;9.876;2023-04-30T11:03:27;102746.66;;;10.88;100.00
7309;BME280;3695;53.330;9.876;2023-04-30T11:05:55;102904.66;;;11.31;100.00
7309;BME280;3695;53.330;9.876;2023-04-30T11:08:31;102939.75;;;11.57;100.00
7309;BME280;3695;53.330;9.876;2023-04-30T11:10:59;102874.22;;;11.60;100.00
7309;BME280;3695;53.330;9.876;2023-04-30T11:13:26;102941.25;;;11.92;100.00
7309;BME280;3695;53.330;9.876;2023-04-30T11:15:52;102851.09;;;11.80;100.00
7309;BME280;3695;53.330;9.876;2023-04-30T11:18:19;102691.06;;;11.23;100.00
7309;BME280;3695;53.330;9.876;2023-04-30T11:20:49;102753.06;;;11.51;100.00
7309;BME280;3695;53.330;9.876;2023-04-30T11:23:21;102881.25;;;12.02;100.00
7309;BME280;3695;53.330;9.876;2023-04-30T11:25:48;102826.22;;;12.00;100.00
7309;BME280;3695;53.330;9.876;2023-04-30T11:28:16;102847.00;;;11.92;100.00
7309;BME280;3695;53.330;9.876;2023-04-30T11:30:50;102848.09;;;12.37;100.00
7309;BME280;3695;53.330;9.876;2023-04-30T11:33:18;102708.38;;;12.15;100.00
7309;BME280;3695;53.330;9.876;2023-04-30T11:35:45;102738.34;;;11.84;100.00
7309;BME280;3695;53.330;9.876;2023-04-30T11:38:11;102779.06;;;11.92;100.00
7309;BME280;3695;53.330;9.876;2023-04-30T11:40:41;102774.41;;;12.01;100.00
7309;BME280;3695;53.330;9.876;2023-04-30T11:43:20;102790.78;;;12.16;100.00
7309;BME280;3695;53.330;9.876;2023-04-30T11:45:58;102686.81;;;11.60;100.00
7309;BME280;3695;53.330;9.876;2023-04-30T11:48:29;102742.44;;;11.72;100.00
7309;BME280;3695;53.330;9.876;2023-04-30T11:50:56;102745.72;;;11.98;100.00
7309;BME280;3695;53.330;9.876;2023-04-30T11:53:25;102766.53;;;12.37;100.00
7309;BME280;3695;53.330;9.876;2023-04-30T11:55:54;102776.38;;;12.38;100.00
7309;BME280;3695;53.330;9.876;2023-04-30T11:58:20;102738.22;;;12.23;100.00
7309;BME280;3695;53.330;9.876;2023-04-30T12:00:47;102750.44;;;12.50;100.00
7309;BME280;3695;53.330;9.876;2023-04-30T12:03:14;102740.78;;;12.02;100.00
7309;BME280;3695;53.330;9.876;2023-04-30T12:05:41;102744.41;;;12.40;100.00
7309;BME280;3695;53.330;9.876;2023-04-30T12:08:07;102735.59;;;12.90;100.00
7309;BME280;3695;53.330;9.876;2023-04-30T12:10:35;102748.72;;;13.25;100.00
7309;BME280;3695;53.330;9.876;2023-04-30T12:13:02;102748.19;;;12.91;100.00
7309;BME280;3695;53.330;9.876;2023-04-30T12:15:29;102758.72;;;12.57;100.00
7309;BME280;3695;53.330;9.876;2023-04-30T12:17:58;102761.00;;;12.22;100.00
7309;BME280;3695;53.330;9.876;2023-04-30T12:20:27;102750.03;;;11.77;100.00
7309;BME280;3695;53.330;9.876;2023-04-30T12:22:55;102759.63;;;13.25;100.00
7309;BME280;3695;53.330;9.876;2023-04-30T12:25:23;102743.53;;;12.63;100.00
7309;BME280;3695;53.330;9.876;2023-04-30T12:27:50;102754.84;;;12.89;100.00
7309;BME280;3695;53.330;9.876;2023-04-30T12:30:20;102750.75;;;13.22;100.00
7309;BME280;3695;53.330;9.876;2023-04-30T12:32:49;102740.63;;;13.46;100.00
7309;BME280;3695;53.330;9.876;2023-04-30T12:35:18;102741.81;;;13.14;100.00
7309;BME280;3695;53.330;9.876;2023-04-30T12:37:46;102747.97;;;13.31;100.00
7309;BME280;3695;53.330;9.876;2023-04-30T12:40:14;102740.50;;;13.10;100.00
7309;BME280;3695;53.330;9.876;2023-04-30T12:42:41;102740.81;;;13.30;100.00
7309;BME280;3695;53.330;9.876;2023-04-30T12:45:09;102740.97;;;13.58;100.00
7309;BME280;3695;53.330;9.876;2023-04-30T12:47:40;102738.34;;;13.49;100.00
7309;BME280;3695;53.330;9.876;2023-04-30T12:50:09;102739.81;;;14.03;100.00
7309;BME280;3695;53.330;9.876;2023-04-30T12:52:37;102739.16;;;13.65;100.00
7309;BME280;3695;53.330;9.876;2023-04-30T12:55:15;102734.03;;;13.55;100.00
7309;BME280;3695;53.330;9.876;2023-04-30T12:58:06;102735.44;;;14.23;100.00
7309;BME280;3695;53.330;9.876;2023-04-30T13:00:43;102728.72;;;13.68;100.00
7309;BME280;3695;53.330;9.876;2023-04-30T13:03:12;102725.66;;;13.93;100.00
7309;BME280;3695;53.330;9.876;2023-04-30T13:05:39;102724.78;;;14.71;100.00
7309;BME280;3695;53.330;9.876;2023-04-30T13:08:06;102722.16;;;14.41;100.00
7309;BME280;3695;53.330;9.876;2023-04-30T13:10:33;102709.19;;;13.29;100.00
7309;BME280;3695;53.330;9.876;2023-04-30T13:13:00;102702.31;;;14.47;100.00